Погода METAR - Красноярск

Код аэропорта ICAO:
Кемерово, Абакан, Красноярск, Новосибирск
Код METAR: UNKL 262000Z 27002MPS 9999 SCT035CB 04/M02 Q1025 R29/290055 NOSIG RMK QFE743
TAF UNKL 261655Z 2618/2718 28005G14MPS 9999 SCT015CB 
     TEMPO 2618/2624 5000 -SHRA BKN013CB 
     BECMG 2619/2621 26003G10MPS 
     BECMG 2701/2703 27005G14MPS 
     BECMG 2712/2714 26003G08MPS
       

Погода - Сейчас

Время: 2019-05-27 03:00, местное
Направление ветра: Запад (270°)
Скорость ветра: 2 м/с
Видимость:
Температура: 4°C
Точка росы: -2°C
Атмосферное давление: 1025 гПа

Архив погоды

Время, местное Направление Скорость, м/с Температура, °C Точка росы, °C Давление, гПа
2019-05-27 03:00 З (270°) 2 4 -2 1025
2019-05-25 15:00 Ю (170°) 6, порывы до 11 20 3 1016
2019-05-25 07:30 Ю (190°) 3 9 4 1019
2019-05-24 01:00 Штиль 0 6 4 1013
2019-05-23 05:00 З (270°) 1 0 0 1005
2019-05-21 23:30 ЗЮЗ (240°) 3 6 3 1002
2019-05-21 17:30 З (270°) 8 12 6 1000
2019-05-21 07:00 Штиль 0 11 7 1000
2019-05-20 15:30 ЗСЗ (290°) 3 19 9 1004
2019-05-19 14:00 Ю (180°) 3 22 -5 1008
2019-05-17 19:30 Переменный 1 9 -6 1019
2019-05-17 19:00 Переменный 3, порывы до 9 10 -5 1019
2019-05-16 18:30 З (270°) 7 9 -5 1016
2019-05-16 12:30 ЗСЗ (290°) 5, порывы до 10 10 -7 1015
2019-05-16 05:30 ЗСЗ (290°) 3 2 -3 1014
2019-05-15 19:00 Переменный 3, порывы до 8 7 -4 1010
2019-05-14 03:30 З (280°) 3 0 -4 1012
2019-05-12 08:30 З (280°) 3 3 2 1007
2019-05-11 21:30 ЗЮЗ (250°) 7, порывы до 12 6 2 1013
2019-05-07 12:30 ЮЮЗ (200°) 2 19 1 1024
2019-05-04 09:30 В (80°) 2 10 -3 1031
2019-05-03 12:00 СЗ (310°) 3 9 -8 1029
2019-05-03 03:30 Штиль 0 -7 -9 1026
2019-05-02 17:00 Переменный 1 5 -11 1024
2019-05-01 17:00 ЗЮЗ (250°) 7, порывы до 14 4 -7 1012
2019-05-01 09:30 З (270°) 8 11 6 996
2019-04-30 16:30 Ю (190°) 8 22 4 1001
2019-04-28 10:00 ЮЮВ (150°) 5 3 -6 1014
2019-04-27 13:30 ЗСЗ (290°) 2 2 -1 1009
2019-04-25 05:00 Штиль 0 -3 -7 1012
2019-04-23 17:00 Переменный 2 11 -9 1018
2019-04-21 19:00 ЗСЗ (290°) 5 1 -2 1010
2019-04-19 16:00 ЗЮЗ (250°) 10, порывы до 16 2 -14 1021
2019-04-19 00:00 ЗЮЗ (260°) 8, порывы до 13 -8 -13 1009
2019-04-17 12:30 ЮЗ (210°) 5, порывы до 10 7 -10 1010
2019-04-17 06:00 Штиль 0 -8 -12 1012
2019-04-16 15:00 Переменный 2 4 -13 1006
2019-04-15 22:30 Штиль 0 -5 -11 1009
2019-04-14 21:00 ЗСЗ (290°) 3 2 -7 1011
2019-04-14 11:00 З (270°) 8 3 -3 1009
2019-04-13 17:30 ЗЮЗ (260°) 7 13 -3 1005
2019-04-13 04:30 ЗЮЗ (240°) 6, порывы до 11 8 -2 1011
2019-04-12 18:00 З (270°) 5, порывы до 10 4 -8 1021
2019-04-12 10:30 СЗ (320°) 3 1 -7 1021
2019-04-11 10:30 З (280°) 8 0 -15 1024
2019-04-11 05:00 ЗЮЗ (260°) 4 -4 -12 1022
2019-04-10 22:00 СЗ (300°) 4 1 -14 1018
2019-04-10 19:30 СЗ (310°) 4, порывы до 9 6 -6 1013